Time;durP1;ratioP1;P1;durP2;ratioP2;P2;SDS_P1;SDS_P2;PMS_P1;PMS_P2;Temp;Humidity;BMP_temperature;BMP_pressure;BME280_temperature;BME280_humidity;BME280_pressure;Samples;Min_cycle;Max_cycle;Signal;HPM_P1;HPM_P2
2021/07/01 00:00:17;;;;;;;7.07;2.40;;;;;;;23.07;61.53;99276.31;6248243;28;20325;-66
2021/07/01 00:03:18;;;;;;;3.63;1.60;;;;;;;22.94;61.93;99292.97;6248341;28;20049;-67
2021/07/01 00:06:19;;;;;;;5.23;2.00;;;;;;;22.81;62.40;99295.50;6248262;28;20046;-67
2021/07/01 00:09:23;;;;;;;8.40;2.00;;;;;;;22.76;62.85;99309.38;6248307;28;20041;-67
2021/07/01 00:12:24;;;;;;;8.23;1.75;;;;;;;22.80;61.96;99300.00;6248035;28;20488;-67
2021/07/01 00:15:30;;;;;;;5.53;2.63;;;;;;;22.74;62.49;99298.09;6248159;28;20041;-67
2021/07/01 00:18:31;;;;;;;7.85;2.20;;;;;;;22.86;62.34;99285.94;6248087;28;20054;-67
2021/07/01 00:21:32;;;;;;;7.40;2.60;;;;;;;22.82;62.38;99278.53;6246797;28;20048;-67
2021/07/01 00:24:32;;;;;;;4.70;2.00;;;;;;;22.79;61.75;99263.75;6246724;28;20050;-67
2021/07/01 00:27:34;;;;;;;7.47;2.13;;;;;;;22.86;62.75;99277.94;6247815;28;20407;-67
2021/07/01 00:30:35;;;;;;;4.93;2.30;;;;;;;22.85;62.48;99291.44;6247818;28;20071;-67
2021/07/01 00:33:35;;;;;;;6.07;2.00;;;;;;;22.88;62.66;99296.38;6247557;28;20484;-67
2021/07/01 00:36:36;;;;;;;5.13;2.40;;;;;;;22.92;62.28;99293.13;6247623;28;20049;-67
2021/07/01 00:39:37;;;;;;;6.60;2.23;;;;;;;22.87;62.78;99302.69;6246337;28;20041;-67
2021/07/01 00:42:38;;;;;;;9.90;2.80;;;;;;;22.91;63.59;99303.97;6247394;28;20357;-67
2021/07/01 00:45:39;;;;;;;6.68;2.10;;;;;;;22.82;64.61;99305.13;6229872;28;20052;-67
2021/07/01 00:48:40;;;;;;;4.10;2.17;;;;;;;22.76;65.50;99295.25;6247240;28;20045;-67
2021/07/01 00:51:41;;;;;;;13.47;2.47;;;;;;;22.82;65.88;99305.13;6246815;28;20492;-66
2021/07/01 00:54:42;;;;;;;5.27;2.10;;;;;;;22.54;69.10;99314.66;6246893;28;20045;-67
2021/07/01 00:57:43;;;;;;;7.53;2.00;;;;;;;22.34;68.18;99316.28;6247559;28;20048;-67
2021/07/01 01:00:55;;;;;;;6.53;2.08;;;;;;;22.26;67.91;99314.59;6246618;28;20062;-67
2021/07/01 01:03:56;;;;;;;;;;;;;;;22.32;67.83;99313.84;6247184;28;20037;-67
2021/07/01 01:06:57;;;;;;;7.28;2.13;;;;;;;22.31;68.47;99314.03;6246953;28;19928;-67
2021/07/01 01:09:58;;;;;;;8.77;1.90;;;;;;;22.43;68.77;99307.19;6247043;28;20080;-67
2021/07/01 01:12:58;;;;;;;3.30;2.10;;;;;;;22.38;69.46;99303.47;6245665;28;20053;-66
2021/07/01 01:16:03;;;;;;;3.57;2.10;;;;;;;22.26;68.66;99293.34;6246657;28;20045;-67
2021/07/01 01:19:03;;;;;;;5.57;2.00;;;;;;;22.39;70.10;99286.50;6245519;28;20049;-67
2021/07/01 01:22:04;;;;;;;6.80;2.30;;;;;;;22.33;69.25;99274.78;6245475;28;20134;-66
2021/07/01 01:25:06;;;;;;;5.70;1.92;;;;;;;22.11;69.72;99261.47;6246524;28;20072;-66
2021/07/01 01:28:07;;;;;;;;;;;;;;;22.07;68.34;99259.34;6246887;28;20481;-67
2021/07/01 01:31:08;;;;;;;4.15;1.90;;;;;;;21.96;68.17;99247.38;6246317;28;19935;-67
2021/07/01 01:34:09;;;;;;;6.83;2.30;;;;;;;21.91;68.49;99237.34;6245285;28;20455;-67
2021/07/01 01:37:10;;;;;;;4.10;1.93;;;;;;;21.94;68.18;99234.28;6245336;28;20046;-67
2021/07/01 01:40:11;;;;;;;5.57;1.80;;;;;;;21.87;67.84;99236.06;6246298;28;20136;-67
2021/07/01 01:43:15;;;;;;;5.85;2.00;;;;;;;21.97;67.51;99226.97;6246416;28;20045;-66
2021/07/01 01:46:16;;;;;;;5.82;1.88;;;;;;;21.86;66.68;99226.44;6246221;28;20042;-66
2021/07/01 01:49:19;;;;;;;4.87;2.03;;;;;;;21.88;66.08;99220.94;6246631;28;20056;-66
2021/07/01 01:52:20;;;;;;;4.55;1.80;;;;;;;21.96;67.52;99230.63;6246162;28;20045;-66
2021/07/01 01:55:21;;;;;;;7.13;1.80;;;;;;;22.14;66.65;99228.38;6246013;28;20411;-66
2021/07/01 01:58:22;;;;;;;7.83;1.97;;;;;;;22.14;65.73;99228.38;6245087;28;20095;-67
2021/07/01 02:01:23;;;;;;;7.90;2.00;;;;;;;22.25;66.76;99225.25;6246159;28;20301;-67
2021/07/01 02:04:23;;;;;;;6.27;1.90;;;;;;;22.25;66.32;99229.75;6246825;28;20116;-67
2021/07/01 02:07:24;;;;;;;5.27;1.70;;;;;;;22.17;67.32;99243.13;6249982;28;20052;-67
2021/07/01 02:10:28;;;;;;;5.60;2.27;;;;;;;22.14;67.23;99246.97;6251031;28;20045;-67
2021/07/01 02:13:29;;;;;;;10.10;2.03;;;;;;;22.11;66.99;99245.53;6250911;28;20040;-66
2021/07/01 02:16:30;;;;;;;2.87;2.10;;;;;;;21.93;67.83;99239.81;6251061;28;20042;-67
2021/07/01 02:19:30;;;;;;;8.10;2.07;;;;;;;22.05;66.47;99235.66;6250653;28;20052;-66
2021/07/01 02:22:31;;;;;;;6.47;2.30;;;;;;;22.05;67.27;99243.63;6249442;28;20478;-66
2021/07/01 02:25:33;;;;;;;7.57;2.23;;;;;;;22.05;69.01;99240.13;6250085;28;20037;-68
2021/07/01 02:28:34;;;;;;;4.90;1.85;;;;;;;22.08;68.24;99243.22;6251374;28;20291;-68
2021/07/01 02:31:35;;;;;;;4.63;2.07;;;;;;;22.08;68.14;99247.72;6251676;28;20100;-66
2021/07/01 02:34:40;;;;;;;4.57;1.90;;;;;;;22.10;68.11;99257.16;6250089;28;20128;-66
2021/07/01 02:37:41;;;;;;;6.88;2.00;;;;;;;22.15;68.16;99261.91;6251174;28;20133;-67
2021/07/01 02:40:42;;;;;;;8.18;2.00;;;;;;;22.01;68.61;99268.91;6249320;28;20042;-67
2021/07/01 02:43:43;;;;;;;5.17;2.37;;;;;;;22.02;69.50;99275.03;6249194;28;20064;-66
2021/07/01 02:46:45;;;;;;;6.90;2.27;;;;;;;22.10;69.50;99302.31;6250255;28;20042;-67
2021/07/01 02:49:46;;;;;;;6.07;2.25;;;;;;;21.99;69.90;99304.63;6250036;28;20115;-67
2021/07/01 02:52:46;;;;;;;7.20;2.33;;;;;;;21.94;69.63;99306.00;6251162;28;20484;-67
2021/07/01 02:55:47;;;;;;;5.40;2.33;;;;;;;21.77;70.11;99317.03;6251066;28;20045;-68
2021/07/01 02:58:49;;;;;;;6.73;1.77;;;;;;;21.87;69.61;99341.47;6251042;28;20098;-68
2021/07/01 03:01:50;;;;;;;6.95;2.10;;;;;;;21.82;69.66;99335.88;6246873;28;20081;-68
2021/07/01 03:04:51;;;;;;;4.50;1.80;;;;;;;21.80;69.26;99343.19;6248320;28;20128;-68
2021/07/01 03:07:52;;;;;;;6.93;2.20;;;;;;;21.86;70.65;99343.28;6248064;28;20091;-68
2021/07/01 03:10:53;;;;;;;6.67;1.90;;;;;;;21.84;69.11;99349.78;6230988;28;20076;-68
2021/07/01 03:13:54;;;;;;;6.97;1.80;;;;;;;21.88;68.52;99349.22;6248028;28;20037;-68
2021/07/01 03:16:55;;;;;;;3.87;1.70;;;;;;;21.78;70.25;99361.94;6247641;28;20472;-69
2021/07/01 03:19:56;;;;;;;6.55;1.77;;;;;;;21.88;69.78;99356.38;6248017;28;20041;-69
2021/07/01 03:22:56;;;;;;;2.90;1.50;;;;;;;21.87;67.60;99352.91;6248004;28;20101;-68
2021/07/01 03:25:57;;;;;;;2.37;1.60;;;;;;;21.81;69.53;99356.28;6247827;28;20042;-68
2021/07/01 03:28:58;;;;;;;6.57;2.70;;;;;;;21.79;70.19;99357.50;6230321;28;20041;-69
2021/07/01 03:31:59;;;;;;;4.57;1.93;;;;;;;21.88;69.27;99364.34;6247769;28;20125;-69
2021/07/01 03:35:00;;;;;;;3.50;1.87;;;;;;;21.91;69.96;99362.16;6247809;28;20115;-69
2021/07/01 03:38:00;;;;;;;6.77;2.07;;;;;;;21.86;70.29;99375.13;6247685;28;20068;-69
2021/07/01 03:41:05;;;;;;;2.63;1.50;;;;;;;21.98;69.96;99380.00;6246478;28;20041;-69
2021/07/01 03:44:10;;;;;;;8.27;2.33;;;;;;;21.91;72.90;99378.09;6247523;28;20045;-69
2021/07/01 03:47:11;;;;;;;3.70;1.85;;;;;;;21.75;71.84;99388.88;6246308;28;20045;-69
2021/07/01 03:50:12;;;;;;;5.80;1.77;;;;;;;21.79;71.26;99387.50;6247511;28;20046;-69
2021/07/01 03:53:13;;;;;;;4.03;1.70;;;;;;;21.79;73.03;99376.06;6246262;28;20049;-69
2021/07/01 03:56:14;;;;;;;5.70;1.77;;;;;;;22.00;70.89;99381.47;6246053;28;20044;-69
2021/07/01 03:59:15;;;;;;;4.23;1.83;;;;;;;21.91;72.56;99386.06;6132519;28;3306026;-68
2021/07/01 04:02:16;;;;;;;3.37;1.70;;;;;;;21.86;73.63;99379.63;6247131;28;20054;-69
2021/07/01 04:05:17;;;;;;;3.20;1.77;;;;;;;22.06;72.91;99374.59;6230754;28;20404;-69
2021/07/01 04:08:18;;;;;;;9.15;2.10;;;;;;;22.06;71.98;99377.25;6247098;28;20050;-69
2021/07/01 04:11:19;;;;;;;8.33;2.10;;;;;;;22.17;71.02;99391.91;6248310;28;20177;-69
2021/07/01 04:14:19;;;;;;;7.53;2.03;;;;;;;21.99;71.94;99403.72;6247943;28;20753;-69
2021/07/01 04:17:20;;;;;;;7.83;2.00;;;;;;;22.05;72.13;99410.97;6248039;28;20050;-69
2021/07/01 04:20:21;;;;;;;6.63;1.80;;;;;;;22.11;70.14;99406.72;6246826;28;20042;-68
2021/07/01 04:23:22;;;;;;;4.53;1.80;;;;;;;22.13;69.99;99413.53;6248160;28;20034;-68
2021/07/01 04:26:22;;;;;;;2.70;1.70;;;;;;;22.16;70.48;99425.63;6246345;28;20044;-69
2021/07/01 04:29:23;;;;;;;7.35;2.03;;;;;;;22.19;70.32;99440.34;6246197;28;20053;-69
2021/07/01 04:32:24;;;;;;;7.20;1.93;;;;;;;22.07;70.85;99453.25;6247640;28;20041;-69
2021/07/01 04:35:25;;;;;;;5.93;1.70;;;;;;;22.04;70.75;99454.47;6246383;28;20033;-69
2021/07/01 04:38:26;;;;;;;6.10;1.90;;;;;;;21.96;70.72;99443.94;6246311;28;20045;-68
2021/07/01 04:41:27;;;;;;;7.10;2.00;;;;;;;21.88;69.46;99452.78;6246256;28;20049;-68
2021/07/01 04:44:27;;;;;;;4.40;1.80;;;;;;;21.97;69.46;99439.44;6246221;28;20452;-69
2021/07/01 04:47:28;;;;;;;5.57;1.87;;;;;;;22.07;68.96;99438.19;6247228;28;20064;-70
2021/07/01 04:50:29;;;;;;;4.53;1.40;;;;;;;21.98;67.48;99431.28;6230425;28;20037;-70
2021/07/01 04:53:30;;;;;;;3.80;1.67;;;;;;;21.93;67.98;99420.41;6230693;28;20477;-70
2021/07/01 04:56:46;;;;;;;3.30;1.40;;;;;;;21.98;67.43;99433.94;6246226;28;20041;-69
2021/07/01 04:59:47;;;;;;;5.88;1.52;;;;;;;22.05;68.60;99436.69;6245774;28;20060;-70
2021/07/01 05:02:47;;;;;;;3.77;1.53;;;;;;;22.12;68.16;99437.63;6247585;28;20125;-68
2021/07/01 05:05:48;;;;;;;3.77;1.90;;;;;;;22.23;67.62;99441.63;6248627;28;20051;-67
2021/07/01 05:08:49;;;;;;;8.07;1.90;;;;;;;22.31;68.20;99436.25;6248711;28;20408;-67
2021/07/01 05:11:49;;;;;;;4.17;1.70;;;;;;;22.29;67.76;99435.63;6247267;28;20046;-67
2021/07/01 05:14:50;;;;;;;4.20;1.77;;;;;;;22.27;68.39;99440.28;6247851;28;20037;-67
2021/07/01 05:17:51;;;;;;;9.40;2.00;;;;;;;22.40;68.16;99458.25;6248783;28;20136;-66
2021/07/01 05:20:52;;;;;;;4.97;2.00;;;;;;;22.41;67.47;99462.56;6247466;28;20426;-67
2021/07/01 05:23:52;;;;;;;10.57;1.90;;;;;;;22.31;68.09;99458.34;6248213;28;20041;-68
2021/07/01 05:26:53;;;;;;;3.30;2.10;;;;;;;22.33;68.07;99453.66;6246647;28;20052;-66
2021/07/01 05:29:54;;;;;;;4.53;1.90;;;;;;;22.37;68.42;99459.44;6230476;28;20049;-66
2021/07/01 05:32:55;;;;;;;6.80;2.20;;;;;;;22.35;68.24;99458.81;6247956;28;20112;-66
2021/07/01 05:35:56;;;;;;;5.57;1.87;;;;;;;22.43;68.00;99464.03;6247991;28;20056;-66
2021/07/01 05:38:57;;;;;;;7.00;1.93;;;;;;;22.38;69.00;99463.72;6247941;28;20515;-66
2021/07/01 05:41:57;;;;;;;9.63;2.33;;;;;;;22.63;67.64;99463.44;6246610;28;20129;-66
2021/07/01 05:44:58;;;;;;;6.23;2.10;;;;;;;22.65;68.83;99442.78;6247898;28;20045;-66
2021/07/01 05:47:59;;;;;;;5.67;2.30;;;;;;;22.65;67.12;99456.94;6247740;28;20041;-66
2021/07/01 05:51:02;;;;;;;7.30;2.00;;;;;;;22.80;66.91;99462.22;6247715;28;20480;-66
2021/07/01 05:57:07;;;;;;;6.97;2.10;;;;;;;22.90;64.77;99460.09;6230550;28;20471;-66
2021/07/01 06:00:11;;;;;;;6.13;2.17;;;;;;;22.97;65.51;99468.13;6246558;28;20049;-66
2021/07/01 06:03:11;;;;;;;6.60;2.10;;;;;;;;;;6230383;28;20119;-66
2021/07/01 06:06:13;;;;;;;7.30;1.90;;;;;;;23.06;64.25;99463.53;6247511;28;20050;-66
2021/07/01 06:09:15;;;;;;;16.65;2.97;;;;;;;23.20;63.46;99462.66;6247569;28;20046;-66
2021/07/01 06:12:16;;;;;;;20.88;2.50;;;;;;;23.30;65.99;99452.50;6247774;28;20480;-66
2021/07/01 06:15:17;;;;;;;8.00;2.20;;;;;;;23.33;63.53;99451.34;6246631;28;20049;-66
2021/07/01 06:18:21;;;;;;;7.70;1.90;;;;;;;23.31;63.06;99448.84;6246553;28;20132;-66
2021/07/01 06:21:23;;;;;;;3.13;1.25;;;;;;;23.33;60.84;99444.16;6247899;28;20492;-66
2021/07/01 06:24:24;;;;;;;7.70;1.80;;;;;;;23.40;61.12;99440.75;6247612;28;20045;-66
2021/07/01 06:27:37;;;;;;;7.63;1.90;;;;;;;23.45;62.95;99443.63;6246419;28;20092;-66
2021/07/01 06:30:40;;;;;;;4.38;1.52;;;;;;;23.54;58.15;99443.31;6247649;28;20045;-66
2021/07/01 06:33:42;;;;;;;6.68;1.67;;;;;;;23.59;59.18;99442.72;6246729;28;20061;-66
2021/07/01 06:36:47;;;;;;;5.43;1.50;;;;;;;23.61;57.39;99442.53;6230150;28;20099;-66
2021/07/01 06:39:50;;;;;;;5.57;1.50;;;;;;;23.46;56.55;99431.97;6246387;28;20124;-66
2021/07/01 06:42:56;;;;;;;5.18;1.27;;;;;;;23.43;58.40;99430.53;6247540;28;20050;-67
2021/07/01 06:45:59;;;;;;;8.05;1.33;;;;;;;23.50;58.34;99427.91;6247384;28;20115;-66
2021/07/01 06:49:01;;;;;;;9.48;1.52;;;;;;;23.59;59.61;99426.75;6247354;28;20049;-66
2021/07/01 06:52:05;;;;;;;4.55;1.45;;;;;;;23.60;58.68;99427.59;6250935;28;20046;-67
2021/07/01 06:55:06;;;;;;;6.35;1.52;;;;;;;23.54;56.16;99424.69;6250623;28;20037;-66
2021/07/01 06:58:08;;;;;;;2.67;1.42;;;;;;;23.58;57.02;99434.94;6218498;28;20056;-66
2021/07/01 07:01:09;;;;;;;9.25;1.33;;;;;;;23.65;57.74;99435.81;6248633;28;20159;-68
2021/07/01 07:04:10;;;;;;;6.18;1.40;;;;;;;23.80;58.68;99431.22;6232384;28;20041;-68
2021/07/01 07:07:11;;;;;;;5.30;1.70;;;;;;;23.89;58.45;99437.25;6231976;28;20114;-67
2021/07/01 07:10:15;;;;;;;2.33;1.65;;;;;;;24.07;59.21;99434.91;6249495;28;20049;-67
2021/07/01 07:13:16;;;;;;;6.40;1.30;;;;;;;24.14;55.70;99432.25;6248422;28;20161;-67
2021/07/01 07:16:18;;;;;;;5.70;1.67;;;;;;;24.23;55.09;99424.94;6249425;28;20049;-67
2021/07/01 07:19:21;;;;;;;6.63;1.30;;;;;;;24.37;55.16;99421.31;6248156;28;20060;-67
2021/07/01 07:22:24;;;;;;;3.55;1.33;;;;;;;24.36;55.97;99433.00;6248321;28;20124;-68
2021/07/01 07:25:27;;;;;;;4.68;1.38;;;;;;;24.38;57.23;99430.13;6249231;28;20065;-68
2021/07/01 07:28:29;;;;;;;6.55;1.25;;;;;;;24.14;57.23;99429.59;6248980;28;20041;-68
2021/07/01 07:31:31;;;;;;;6.78;1.38;;;;;;;24.20;56.69;99428.00;6249130;28;20116;-68
2021/07/01 07:34:33;;;;;;;3.60;1.63;;;;;;;24.11;57.83;99424.66;6247794;28;20045;-68
2021/07/01 07:37:35;;;;;;;5.90;1.30;;;;;;;24.17;55.03;99431.03;6248911;28;20045;-68
2021/07/01 07:40:39;;;;;;;;;;;;;;;24.22;54.97;99425.97;6249286;28;20458;-68
2021/07/01 07:43:41;;;;;;;4.03;1.17;;;;;;;24.28;54.49;99423.31;6247669;28;20376;-68
2021/07/01 07:46:42;;;;;;;;;;;;;;;24.30;55.58;99429.28;6247854;28;20096;-67
2021/07/01 07:49:43;;;;;;;6.93;1.52;;;;;;;24.26;55.22;99437.88;6248740;28;19927;-67
2021/07/01 07:52:52;;;;;;;7.90;1.40;;;;;;;24.18;55.88;99438.03;6231023;28;20049;-67
2021/07/01 07:56:06;;;;;;;4.05;1.70;;;;;;;24.19;56.42;99440.47;6248506;28;20045;-68
2021/07/01 07:59:10;;;;;;;4.57;1.88;;;;;;;23.85;58.34;99438.66;6248199;28;20072;-68
2021/07/01 08:02:36;;;;;;;10.48;2.00;;;;;;;23.86;62.09;99438.44;6247184;28;20048;-67
2021/07/01 08:05:38;;;;;;;14.48;2.30;;;;;;;23.94;60.18;99429.47;6231171;28;20499;-67
2021/07/01 08:08:43;;;;;;;6.88;2.05;;;;;;;23.82;61.09;99439.84;6246905;28;20467;-68
2021/07/01 08:11:45;;;;;;;17.80;2.88;;;;;;;23.56;61.00;99431.66;6248018;28;20196;-67
2021/07/01 08:14:46;;;;;;;7.38;2.15;;;;;;;23.65;61.67;99433.97;6248002;28;20037;-67
2021/07/01 08:17:57;;;;;;;23.65;3.42;;;;;;;23.69;61.97;99426.41;6246729;28;20041;-67
2021/07/01 08:20:59;;;;;;;10.52;2.08;;;;;;;23.73;58.23;99428.50;6247848;28;20412;-67
2021/07/01 08:24:01;;;;;;;14.75;2.95;;;;;;;23.81;62.02;99424.91;6247956;28;20041;-67
2021/07/01 08:27:02;;;;;;;10.57;2.30;;;;;;;23.84;61.23;99415.69;6246360;28;20037;-67
2021/07/01 08:30:05;;;;;;;5.15;1.98;;;;;;;23.95;58.86;99428.47;6246512;28;20045;-67
2021/07/01 08:33:06;;;;;;;8.45;2.00;;;;;;;24.03;60.31;99430.97;6247670;28;20073;-67
2021/07/01 08:36:21;;;;;;;13.15;1.92;;;;;;;24.13;57.98;99431.44;6247747;28;20128;-67
2021/07/01 08:39:23;;;;;;;7.03;1.60;;;;;;;24.29;58.20;99435.63;6247456;28;20308;-67
2021/07/01 08:42:26;;;;;;;6.85;1.75;;;;;;;24.30;59.96;99439.13;6246240;28;20065;-67
2021/07/01 08:46:15;;;;;;;5.00;1.90;;;;;;;24.32;58.87;99445.06;6247202;28;20484;-67
2021/07/01 08:49:31;;;;;;;9.82;1.80;;;;;;;24.32;59.25;99437.91;6219764;28;20536;-67
2021/07/01 08:52:34;;;;;;;4.55;1.38;;;;;;;24.35;57.13;99439.34;6189507;28;20119;-67
2021/07/01 08:55:39;;;;;;;5.30;1.50;;;;;;;24.42;57.10;99437.53;6247092;28;20422;-67
2021/07/01 08:58:47;;;;;;;6.50;1.73;;;;;;;24.52;57.78;99445.19;6247283;28;20128;-67
2021/07/01 09:02:07;;;;;;;7.35;1.70;;;;;;;24.52;57.43;99432.69;6246704;28;20131;-67
2021/07/01 09:05:16;;;;;;;9.38;1.45;;;;;;;24.67;61.42;99435.19;6246938;28;20048;-67
2021/07/01 09:08:21;;;;;;;2.97;1.50;;;;;;;24.81;59.70;99443.22;6245504;28;20052;-67
2021/07/01 09:11:27;;;;;;;5.57;1.35;;;;;;;24.85;56.28;99439.13;6246796;28;20262;-67
2021/07/01 09:14:29;;;;;;;2.83;1.48;;;;;;;24.88;55.18;99444.91;6246234;28;20046;-67
2021/07/01 09:17:33;;;;;;;2.70;1.42;;;;;;;24.96;56.28;99448.38;6245343;28;20455;-67
2021/07/01 09:20:38;;;;;;;7.47;2.40;;;;;;;25.08;57.11;99444.94;6246451;28;20042;-67
2021/07/01 09:23:48;;;;;;;4.55;1.70;;;;;;;25.10;57.39;99445.56;6246567;28;20049;-67
2021/07/01 09:26:49;;;;;;;2.92;1.63;;;;;;;25.06;55.33;99444.31;6245014;28;20424;-68
2021/07/01 09:29:50;;;;;;;5.60;1.80;;;;;;;25.16;56.02;99443.91;6246293;28;20064;-67
2021/07/01 09:33:00;;;;;;;12.10;1.60;;;;;;;25.23;54.48;99444.78;6245190;28;20042;-67
2021/07/01 09:36:01;;;;;;;4.13;1.60;;;;;;;25.27;54.31;99442.53;6246282;28;20042;-67
2021/07/01 09:39:03;;;;;;;8.53;1.37;;;;;;;25.43;52.08;99438.63;6244992;28;20054;-67
2021/07/01 09:42:06;;;;;;;3.80;1.50;;;;;;;25.58;51.27;99441.91;6245359;28;20271;-68
2021/07/01 09:45:15;;;;;;;3.38;1.23;;;;;;;25.89;51.26;99448.47;6246231;28;20037;-67
2021/07/01 09:48:19;;;;;;;6.15;1.30;;;;;;;25.94;51.92;99438.00;6246108;28;20092;-67
2021/07/01 09:51:20;;;;;;;5.38;1.27;;;;;;;25.98;51.40;99433.06;6246104;28;20118;-67
2021/07/01 09:54:23;;;;;;;1.83;1.20;;;;;;;26.06;52.07;99430.16;6244852;28;20167;-67
2021/07/01 09:57:28;;;;;;;4.25;1.45;;;;;;;26.25;50.28;99431.13;6244882;28;20224;-67
2021/07/01 10:00:31;;;;;;;4.40;1.05;;;;;;;26.16;51.11;99427.88;6245765;28;20075;-67
2021/07/01 10:03:57;;;;;;;3.33;1.20;;;;;;;26.25;49.32;99434.66;6245038;28;20049;-67
2021/07/01 10:07:09;;;;;;;5.38;1.08;;;;;;;26.23;44.39;99447.41;6245753;28;20480;-67
2021/07/01 10:10:12;;;;;;;3.05;1.10;;;;;;;26.28;46.03;99430.72;6244605;28;20038;-67
2021/07/01 10:13:14;;;;;;;2.17;1.27;;;;;;;26.29;46.58;99430.50;6245803;28;20400;-67
2021/07/01 10:16:21;;;;;;;3.17;1.30;;;;;;;26.30;45.44;99434.81;6244629;28;20046;-67
2021/07/01 10:19:22;;;;;;;5.35;1.50;;;;;;;26.33;44.36;99429.03;6244554;28;20041;-67
2021/07/01 10:22:23;;;;;;;3.35;1.27;;;;;;;26.26;45.66;99427.44;6244470;28;20125;-67
2021/07/01 10:25:33;;;;;;;4.80;1.20;;;;;;;26.23;46.59;99425.16;6246416;28;20475;-67
2021/07/01 10:28:35;;;;;;;2.63;1.30;;;;;;;26.20;46.19;99421.06;6249296;28;20038;-67
2021/07/01 10:31:58;;;;;;;5.20;1.23;;;;;;;26.29;46.23;99424.31;6249121;28;20073;-67
2021/07/01 10:34:59;;;;;;;4.30;0.82;;;;;;;26.53;44.75;99422.78;6250444;28;20049;-67
2021/07/01 10:38:05;;;;;;;5.30;1.00;;;;;;;26.58;45.56;99422.19;6249137;28;20045;-67
2021/07/01 10:41:06;;;;;;;1.67;0.93;;;;;;;26.56;42.27;99418.88;6250374;28;20041;-67
2021/07/01 10:44:21;;;;;;;8.57;1.27;;;;;;;26.60;43.60;99422.78;6250152;28;20129;-67
2021/07/01 10:47:40;;;;;;;6.97;1.10;;;;;;;26.71;44.24;99427.47;6250044;28;20492;-67
2021/07/01 10:50:42;;;;;;;6.95;1.30;;;;;;;26.79;44.59;99426.38;6249903;28;20060;-67
2021/07/01 10:53:46;;;;;;;4.85;0.90;;;;;;;26.85;41.46;99413.00;6248802;28;20095;-67
2021/07/01 10:56:53;;;;;;;4.30;1.17;;;;;;;26.97;41.89;99423.00;6248686;28;20090;-67
2021/07/01 10:59:54;;;;;;;3.35;1.35;;;;;;;26.91;41.42;99414.81;6249541;28;20528;-67
2021/07/01 11:02:55;;;;;;;;;;;;;;;26.83;42.22;99412.38;6248959;28;20045;-67
2021/07/01 11:05:58;;;;;;;1.55;0.90;;;;;;;26.98;43.37;99406.72;6249741;28;19929;-67
2021/07/01 11:09:00;;;;;;;5.60;1.00;;;;;;;26.97;41.12;99398.91;6249306;28;20045;-67
2021/07/01 11:12:02;;;;;;;7.15;0.95;;;;;;;26.84;42.95;99411.34;6248394;28;20121;-69
2021/07/01 11:15:05;;;;;;;7.03;1.00;;;;;;;27.08;42.03;99408.94;6248004;28;20073;-69
2021/07/01 11:18:10;;;;;;;2.65;0.95;;;;;;;27.18;41.33;99411.09;6248321;28;20487;-69
2021/07/01 11:21:14;;;;;;;4.80;1.00;;;;;;;27.35;39.91;99411.44;6249165;28;20300;-69
2021/07/01 11:24:21;;;;;;;1.98;1.00;;;;;;;27.38;40.24;99408.31;6249204;28;20050;-69
2021/07/01 11:27:23;;;;;;;1.50;0.90;;;;;;;27.40;41.10;99406.22;6249087;28;20484;-67
2021/07/01 11:30:25;;;;;;;2.92;0.90;;;;;;;27.59;40.58;99402.53;6251714;28;20048;-67
2021/07/01 11:33:28;;;;;;;4.22;0.93;;;;;;;27.70;38.70;99407.19;6252357;28;20038;-66
2021/07/01 11:36:29;;;;;;;2.50;1.00;;;;;;;27.67;39.23;99398.75;6232647;28;20099;-67
2021/07/01 11:39:30;;;;;;;;;;;;;;;27.72;39.99;99396.25;6249495;28;20050;-67
2021/07/01 11:42:31;;;;;;;4.80;1.10;;;;;;;27.81;41.71;99386.88;6250298;28;19921;-67
2021/07/01 11:45:33;;;;;;;4.00;0.93;;;;;;;27.71;39.96;99389.25;6250359;28;20090;-67
2021/07/01 11:48:35;;;;;;;2.60;1.10;;;;;;;27.90;40.29;99388.25;6249880;28;20045;-67
2021/07/01 11:51:37;;;;;;;2.55;1.10;;;;;;;27.82;40.30;99398.41;6249296;28;20045;-67
2021/07/01 11:54:38;;;;;;;3.10;0.80;;;;;;;28.03;40.46;99386.47;6248356;28;20048;-66
2021/07/01 11:57:40;;;;;;;7.65;1.10;;;;;;;27.79;38.71;99385.47;6231757;28;20500;-67
2021/07/01 12:00:42;;;;;;;3.45;0.90;;;;;;;27.98;39.05;99392.47;6247594;28;20049;-67
2021/07/01 12:03:47;;;;;;;2.20;0.80;;;;;;;27.87;39.20;99393.25;6247507;28;20045;-67
2021/07/01 12:07:15;;;;;;;3.83;0.90;;;;;;;27.92;39.37;99379.97;6247809;28;20083;-68
2021/07/01 12:10:19;;;;;;;1.95;0.80;;;;;;;27.79;39.67;99372.88;6249080;28;20045;-67
2021/07/01 12:13:32;;;;;;;8.02;1.00;;;;;;;27.88;39.42;99370.75;6248792;28;20400;-66
2021/07/01 12:16:40;;;;;;;1.58;0.95;;;;;;;27.91;40.48;99371.13;6247311;28;20049;-67
2021/07/01 12:19:47;;;;;;;4.05;0.80;;;;;;;28.14;39.44;99370.44;6246957;28;20539;-67
2021/07/01 12:22:49;;;;;;;4.97;0.63;;;;;;;28.37;38.55;99370.78;6247237;28;20099;-66
2021/07/01 12:25:59;;;;;;;4.63;0.77;;;;;;;28.29;37.17;99370.06;6248916;28;20456;-66
2021/07/01 12:29:02;;;;;;;3.05;0.73;;;;;;;28.28;36.63;99378.31;6248495;28;20041;-67
2021/07/01 12:32:23;;;;;;;4.10;0.70;;;;;;;28.03;36.21;99368.50;6247651;28;20473;-67
2021/07/01 12:35:33;;;;;;;7.20;0.80;;;;;;;28.18;36.72;99362.75;6247243;28;20053;-67
2021/07/01 12:38:37;;;;;;;4.05;0.80;;;;;;;28.23;36.17;99370.13;6248410;28;20068;-67
2021/07/01 12:41:45;;;;;;;2.60;1.00;;;;;;;28.29;35.09;99372.75;6248215;28;20072;-67
2021/07/01 12:44:47;;;;;;;5.13;0.90;;;;;;;28.35;34.82;99373.69;6248506;28;20045;-66
2021/07/01 12:47:48;;;;;;;5.18;0.82;;;;;;;28.25;34.59;99376.91;6247563;28;20129;-67
2021/07/01 12:50:48;;;;;;;5.53;0.82;;;;;;;28.28;35.65;99370.28;6248004;28;20041;-66
2021/07/01 12:53:49;;;;;;;5.07;0.90;;;;;;;28.43;35.84;99364.50;6248088;28;20193;-67
2021/07/01 12:56:51;;;;;;;5.55;0.85;;;;;;;28.59;34.05;99358.53;6247985;28;20045;-67
2021/07/01 12:59:54;;;;;;;3.35;0.73;;;;;;;28.52;35.82;99355.13;6246464;28;20141;-67
2021/07/01 13:03:01;;;;;;;5.95;0.63;;;;;;;28.32;33.18;99361.53;6247854;28;20056;-67
2021/07/01 13:06:02;;;;;;;8.27;1.05;;;;;;;28.42;33.46;99352.16;6247682;28;20087;-67
2021/07/01 13:09:03;;;;;;;9.88;0.85;;;;;;;28.30;33.48;99360.13;6247731;28;20419;-67
2021/07/01 13:12:09;;;;;;;3.85;0.50;;;;;;;28.24;33.87;99359.19;6213818;28;20053;-67
2021/07/01 13:15:19;;;;;;;1.83;0.63;;;;;;;28.22;34.24;99357.78;6246608;28;20045;-67
2021/07/01 13:18:23;;;;;;;1.00;0.60;;;;;;;28.22;35.07;99355.09;6246186;28;20075;-67
2021/07/01 13:21:23;;;;;;;3.28;0.50;;;;;;;28.25;32.93;99362.66;6246221;28;20438;-67
2021/07/01 13:24:27;;;;;;;2.60;0.60;;;;;;;28.28;32.62;99359.56;6247279;28;20045;-67
2021/07/01 13:27:33;;;;;;;2.63;0.50;;;;;;;28.36;33.69;99361.09;6245900;28;20037;-67
2021/07/01 13:30:41;;;;;;;1.85;0.60;;;;;;;28.32;33.30;99361.53;6245927;28;20084;-67
2021/07/01 13:33:42;;;;;;;1.13;0.60;;;;;;;28.44;35.02;99372.34;6246977;28;20045;-67
2021/07/01 13:36:43;;;;;;;4.93;0.50;;;;;;;28.55;33.24;99376.13;6247051;28;20072;-67
2021/07/01 13:39:44;;;;;;;3.75;0.47;;;;;;;28.32;33.33;99371.47;6229556;28;20546;-67
2021/07/01 13:42:46;;;;;;;2.65;0.60;;;;;;;28.21;35.06;99367.69;6229218;28;20041;-67
2021/07/01 13:45:54;;;;;;;2.22;0.50;;;;;;;28.33;35.33;99373.09;6245897;28;20045;-67
2021/07/01 13:48:59;;;;;;;1.02;0.50;;;;;;;28.47;37.34;99369.19;6246857;28;20099;-67
2021/07/01 13:52:00;;;;;;;0.80;0.40;;;;;;;28.43;36.17;99367.19;6229129;28;20045;-68
2021/07/01 13:55:01;;;;;;;2.47;0.60;;;;;;;28.48;35.80;99365.47;6245940;28;20038;-68
2021/07/01 13:58:02;;;;;;;0.60;0.57;;;;;;;28.51;36.78;99366.91;6247132;28;20046;-67
2021/07/01 14:01:06;;;;;;;5.80;0.80;;;;;;;28.62;34.68;99360.78;6249033;28;20516;-67
2021/07/01 14:04:07;;;;;;;2.65;0.60;;;;;;;28.72;34.14;99363.72;6251954;28;20041;-67
2021/07/01 14:07:08;;;;;;;5.10;0.60;;;;;;;28.69;35.33;99348.06;6252157;28;20444;-67
2021/07/01 14:10:13;;;;;;;0.98;0.60;;;;;;;28.64;34.11;99349.78;6251135;28;20115;-67
2021/07/01 14:13:14;;;;;;;4.65;0.60;;;;;;;28.43;33.09;99354.59;6251920;28;20042;-67
2021/07/01 14:16:17;;;;;;;;;;;;;;;28.51;33.60;99353.50;6251227;28;20041;-68
2021/07/01 14:19:18;;;;;;;0.77;0.40;;;;;;;28.38;33.86;99356.34;6251894;28;19960;-67
2021/07/01 14:22:31;;;;;;;3.72;0.60;;;;;;;28.44;33.45;99353.56;6251711;28;20045;-67
2021/07/01 14:25:36;;;;;;;2.33;0.70;;;;;;;28.54;34.84;99355.72;6250235;28;20416;-67